sensor_id;sensor_type;location;lat;lon;timestamp;P1;durP1;ratioP1;P2;durP2;ratioP2
17347;SDS011;8791;50.876;4.342;2022-11-21T00:00:36;11.97;;;3.27;;
17347;SDS011;8791;50.876;4.342;2022-11-21T00:03:03;8.60;;;2.90;;
17347;SDS011;8791;50.876;4.342;2022-11-21T00:05:30;11.80;;;3.10;;
17347;SDS011;8791;50.876;4.342;2022-11-21T00:07:58;14.70;;;3.10;;
17347;SDS011;8791;50.876;4.342;2022-11-21T00:10:25;12.93;;;3.37;;
17347;SDS011;8791;50.876;4.342;2022-11-21T00:12:53;8.77;;;3.07;;
17347;SDS011;8791;50.876;4.342;2022-11-21T00:15:22;15.63;;;3.37;;
17347;SDS011;8791;50.876;4.342;2022-11-21T00:17:50;22.17;;;3.33;;
17347;SDS011;8791;50.876;4.342;2022-11-21T00:20:17;10.47;;;3.27;;
17347;SDS011;8791;50.876;4.342;2022-11-21T00:22:46;11.13;;;3.50;;
17347;SDS011;8791;50.876;4.342;2022-11-21T00:25:13;14.67;;;3.87;;
17347;SDS011;8791;50.876;4.342;2022-11-21T00:27:41;11.47;;;3.53;;
17347;SDS011;8791;50.876;4.342;2022-11-21T00:30:09;7.57;;;3.27;;
17347;SDS011;8791;50.876;4.342;2022-11-21T00:32:37;8.50;;;3.23;;
17347;SDS011;8791;50.876;4.342;2022-11-21T00:35:04;10.67;;;3.33;;
17347;SDS011;8791;50.876;4.342;2022-11-21T00:37:32;9.83;;;4.13;;
17347;SDS011;8791;50.876;4.342;2022-11-21T00:39:59;15.33;;;3.70;;
17347;SDS011;8791;50.876;4.342;2022-11-21T00:42:26;10.50;;;3.80;;
17347;SDS011;8791;50.876;4.342;2022-11-21T00:44:53;11.53;;;3.93;;
17347;SDS011;8791;50.876;4.342;2022-11-21T00:47:21;10.33;;;3.70;;
17347;SDS011;8791;50.876;4.342;2022-11-21T00:49:48;9.83;;;2.90;;
17347;SDS011;8791;50.876;4.342;2022-11-21T00:52:15;7.73;;;2.97;;
17347;SDS011;8791;50.876;4.342;2022-11-21T00:54:43;14.20;;;3.57;;
17347;SDS011;8791;50.876;4.342;2022-11-21T00:57:09;11.83;;;3.50;;
17347;SDS011;8791;50.876;4.342;2022-11-21T00:59:36;10.77;;;3.07;;
17347;SDS011;8791;50.876;4.342;2022-11-21T01:02:03;11.10;;;3.50;;
17347;SDS011;8791;50.876;4.342;2022-11-21T01:04:32;14.70;;;3.20;;
17347;SDS011;8791;50.876;4.342;2022-11-21T01:07:00;15.27;;;3.27;;
17347;SDS011;8791;50.876;4.342;2022-11-21T01:09:27;16.43;;;4.13;;
17347;SDS011;8791;50.876;4.342;2022-11-21T01:11:54;8.73;;;3.47;;
17347;SDS011;8791;50.876;4.342;2022-11-21T01:14:21;10.07;;;3.20;;
17347;SDS011;8791;50.876;4.342;2022-11-21T01:16:47;12.37;;;3.20;;
17347;SDS011;8791;50.876;4.342;2022-11-21T01:19:14;6.07;;;2.80;;
17347;SDS011;8791;50.876;4.342;2022-11-21T01:21:42;9.03;;;3.17;;
17347;SDS011;8791;50.876;4.342;2022-11-21T01:24:09;9.10;;;3.10;;
17347;SDS011;8791;50.876;4.342;2022-11-21T01:26:36;7.57;;;2.80;;
17347;SDS011;8791;50.876;4.342;2022-11-21T01:29:03;10.93;;;3.50;;
17347;SDS011;8791;50.876;4.342;2022-11-21T01:31:32;14.77;;;3.47;;
17347;SDS011;8791;50.876;4.342;2022-11-21T01:34:00;12.97;;;3.00;;
17347;SDS011;8791;50.876;4.342;2022-11-21T01:36:27;11.30;;;2.73;;
17347;SDS011;8791;50.876;4.342;2022-11-21T01:38:58;13.63;;;3.33;;
17347;SDS011;8791;50.876;4.342;2022-11-21T01:41:27;10.17;;;3.07;;
17347;SDS011;8791;50.876;4.342;2022-11-21T01:43:57;10.97;;;2.73;;
17347;SDS011;8791;50.876;4.342;2022-11-21T01:46:24;10.97;;;2.67;;
17347;SDS011;8791;50.876;4.342;2022-11-21T01:48:52;14.63;;;2.90;;
17347;SDS011;8791;50.876;4.342;2022-11-21T01:51:24;7.30;;;2.70;;
17347;SDS011;8791;50.876;4.342;2022-11-21T01:53:57;8.07;;;2.80;;
17347;SDS011;8791;50.876;4.342;2022-11-21T01:56:26;11.87;;;2.30;;
17347;SDS011;8791;50.876;4.342;2022-11-21T01:58:56;10.77;;;3.27;;
17347;SDS011;8791;50.876;4.342;2022-11-21T02:01:26;10.33;;;3.37;;
17347;SDS011;8791;50.876;4.342;2022-11-21T02:03:54;9.33;;;3.33;;
17347;SDS011;8791;50.876;4.342;2022-11-21T02:06:23;11.87;;;3.30;;
17347;SDS011;8791;50.876;4.342;2022-11-21T02:08:52;13.93;;;3.43;;
17347;SDS011;8791;50.876;4.342;2022-11-21T02:11:22;18.07;;;3.97;;
17347;SDS011;8791;50.876;4.342;2022-11-21T02:13:55;10.50;;;3.17;;
17347;SDS011;8791;50.876;4.342;2022-11-21T02:16:22;10.03;;;3.77;;
17347;SDS011;8791;50.876;4.342;2022-11-21T02:18:50;12.13;;;3.50;;
17347;SDS011;8791;50.876;4.342;2022-11-21T02:21:19;11.40;;;3.00;;
17347;SDS011;8791;50.876;4.342;2022-11-21T02:23:55;13.63;;;2.97;;
17347;SDS011;8791;50.876;4.342;2022-11-21T02:26:28;7.93;;;2.53;;
17347;SDS011;8791;50.876;4.342;2022-11-21T02:28:56;7.30;;;2.70;;
17347;SDS011;8791;50.876;4.342;2022-11-21T02:31:23;12.50;;;3.10;;
17347;SDS011;8791;50.876;4.342;2022-11-21T02:33:50;6.40;;;2.90;;
17347;SDS011;8791;50.876;4.342;2022-11-21T02:39:14;12.30;;;3.37;;
17347;SDS011;8791;50.876;4.342;2022-11-21T02:41:49;10.43;;;3.07;;
17347;SDS011;8791;50.876;4.342;2022-11-21T02:44:23;7.33;;;2.83;;
17347;SDS011;8791;50.876;4.342;2022-11-21T02:46:55;10.90;;;2.60;;
17347;SDS011;8791;50.876;4.342;2022-11-21T02:49:30;14.23;;;2.73;;
17347;SDS011;8791;50.876;4.342;2022-11-21T02:52:04;8.50;;;2.80;;
17347;SDS011;8791;50.876;4.342;2022-11-21T02:54:31;14.83;;;3.10;;
17347;SDS011;8791;50.876;4.342;2022-11-21T02:57:00;5.33;;;2.30;;
17347;SDS011;8791;50.876;4.342;2022-11-21T02:59:26;5.70;;;2.60;;
17347;SDS011;8791;50.876;4.342;2022-11-21T03:01:53;13.00;;;2.57;;
17347;SDS011;8791;50.876;4.342;2022-11-21T03:04:23;4.97;;;2.37;;
17347;SDS011;8791;50.876;4.342;2022-11-21T03:06:50;5.53;;;2.63;;
17347;SDS011;8791;50.876;4.342;2022-11-21T03:09:17;8.73;;;2.60;;
17347;SDS011;8791;50.876;4.342;2022-11-21T03:11:44;11.07;;;3.27;;
17347;SDS011;8791;50.876;4.342;2022-11-21T03:14:12;10.40;;;2.53;;
17347;SDS011;8791;50.876;4.342;2022-11-21T03:16:39;7.80;;;2.43;;
17347;SDS011;8791;50.876;4.342;2022-11-21T03:19:06;11.17;;;2.57;;
17347;SDS011;8791;50.876;4.342;2022-11-21T03:21:33;7.20;;;2.40;;
17347;SDS011;8791;50.876;4.342;2022-11-21T03:24:00;10.43;;;2.80;;
17347;SDS011;8791;50.876;4.342;2022-11-21T03:26:27;10.00;;;2.40;;
17347;SDS011;8791;50.876;4.342;2022-11-21T03:28:54;7.77;;;2.57;;
17347;SDS011;8791;50.876;4.342;2022-11-21T03:31:22;10.37;;;2.43;;
17347;SDS011;8791;50.876;4.342;2022-11-21T03:33:49;9.13;;;3.17;;
17347;SDS011;8791;50.876;4.342;2022-11-21T03:36:16;9.87;;;2.50;;
17347;SDS011;8791;50.876;4.342;2022-11-21T03:38:43;9.47;;;2.33;;
17347;SDS011;8791;50.876;4.342;2022-11-21T03:41:10;4.97;;;2.10;;
17347;SDS011;8791;50.876;4.342;2022-11-21T03:43:50;7.63;;;2.23;;
17347;SDS011;8791;50.876;4.342;2022-11-21T03:46:17;5.47;;;2.13;;
17347;SDS011;8791;50.876;4.342;2022-11-21T03:48:46;5.80;;;1.87;;
17347;SDS011;8791;50.876;4.342;2022-11-21T03:51:13;6.90;;;2.30;;
17347;SDS011;8791;50.876;4.342;2022-11-21T03:53:40;6.40;;;2.27;;
17347;SDS011;8791;50.876;4.342;2022-11-21T03:56:07;4.93;;;2.10;;
17347;SDS011;8791;50.876;4.342;2022-11-21T03:58:33;9.30;;;2.20;;
17347;SDS011;8791;50.876;4.342;2022-11-21T04:01:00;13.80;;;3.53;;
17347;SDS011;8791;50.876;4.342;2022-11-21T04:03:28;7.30;;;2.10;;
17347;SDS011;8791;50.876;4.342;2022-11-21T04:05:56;4.73;;;2.40;;
17347;SDS011;8791;50.876;4.342;2022-11-21T04:08:23;10.10;;;2.20;;
17347;SDS011;8791;50.876;4.342;2022-11-21T04:10:50;3.70;;;2.10;;
17347;SDS011;8791;50.876;4.342;2022-11-21T04:13:18;4.67;;;1.90;;
17347;SDS011;8791;50.876;4.342;2022-11-21T04:15:45;6.20;;;2.27;;
17347;SDS011;8791;50.876;4.342;2022-11-21T04:18:12;8.53;;;2.60;;
17347;SDS011;8791;50.876;4.342;2022-11-21T04:20:39;5.50;;;2.00;;
17347;SDS011;8791;50.876;4.342;2022-11-21T04:23:07;4.40;;;2.30;;
17347;SDS011;8791;50.876;4.342;2022-11-21T04:25:34;10.27;;;2.20;;
17347;SDS011;8791;50.876;4.342;2022-11-21T04:28:02;13.20;;;2.40;;
17347;SDS011;8791;50.876;4.342;2022-11-21T04:30:29;8.93;;;2.20;;
17347;SDS011;8791;50.876;4.342;2022-11-21T04:32:58;12.13;;;2.53;;
17347;SDS011;8791;50.876;4.342;2022-11-21T04:35:25;5.83;;;2.60;;
17347;SDS011;8791;50.876;4.342;2022-11-21T04:37:52;6.03;;;2.23;;
17347;SDS011;8791;50.876;4.342;2022-11-21T04:40:20;3.47;;;2.30;;
17347;SDS011;8791;50.876;4.342;2022-11-21T04:42:47;6.90;;;2.27;;
17347;SDS011;8791;50.876;4.342;2022-11-21T04:45:15;12.57;;;2.40;;
17347;SDS011;8791;50.876;4.342;2022-11-21T04:47:43;5.40;;;2.90;;
17347;SDS011;8791;50.876;4.342;2022-11-21T04:50:12;10.33;;;2.33;;
17347;SDS011;8791;50.876;4.342;2022-11-21T04:52:40;10.57;;;2.37;;
17347;SDS011;8791;50.876;4.342;2022-11-21T04:55:07;8.17;;;2.33;;
17347;SDS011;8791;50.876;4.342;2022-11-21T04:57:36;8.13;;;2.47;;
17347;SDS011;8791;50.876;4.342;2022-11-21T05:00:03;5.20;;;2.73;;
17347;SDS011;8791;50.876;4.342;2022-11-21T05:02:31;9.67;;;2.80;;
17347;SDS011;8791;50.876;4.342;2022-11-21T05:04:58;8.73;;;2.77;;
17347;SDS011;8791;50.876;4.342;2022-11-21T05:07:25;8.90;;;2.83;;
17347;SDS011;8791;50.876;4.342;2022-11-21T05:09:52;7.00;;;2.70;;
17347;SDS011;8791;50.876;4.342;2022-11-21T05:12:19;7.50;;;2.47;;
17347;SDS011;8791;50.876;4.342;2022-11-21T05:15:05;11.17;;;3.03;;
17347;SDS011;8791;50.876;4.342;2022-11-21T05:17:32;16.17;;;2.80;;
17347;SDS011;8791;50.876;4.342;2022-11-21T05:19:59;5.23;;;2.60;;
17347;SDS011;8791;50.876;4.342;2022-11-21T05:22:26;8.50;;;3.00;;
17347;SDS011;8791;50.876;4.342;2022-11-21T05:24:53;9.60;;;2.53;;
17347;SDS011;8791;50.876;4.342;2022-11-21T05:27:19;15.33;;;2.93;;
17347;SDS011;8791;50.876;4.342;2022-11-21T05:29:46;17.17;;;2.90;;
17347;SDS011;8791;50.876;4.342;2022-11-21T05:32:14;9.20;;;3.27;;
17347;SDS011;8791;50.876;4.342;2022-11-21T05:34:41;6.23;;;2.67;;
17347;SDS011;8791;50.876;4.342;2022-11-21T05:37:08;14.90;;;2.63;;
17347;SDS011;8791;50.876;4.342;2022-11-21T05:39:35;10.73;;;2.77;;
17347;SDS011;8791;50.876;4.342;2022-11-21T05:42:02;6.27;;;2.70;;
17347;SDS011;8791;50.876;4.342;2022-11-21T05:44:28;9.33;;;2.63;;
17347;SDS011;8791;50.876;4.342;2022-11-21T05:46:54;10.33;;;2.60;;
17347;SDS011;8791;50.876;4.342;2022-11-21T05:49:23;8.27;;;2.77;;
17347;SDS011;8791;50.876;4.342;2022-11-21T05:51:49;12.87;;;3.13;;
17347;SDS011;8791;50.876;4.342;2022-11-21T05:54:16;9.60;;;3.57;;
17347;SDS011;8791;50.876;4.342;2022-11-21T05:56:43;10.70;;;3.27;;
17347;SDS011;8791;50.876;4.342;2022-11-21T05:59:10;13.73;;;3.40;;
17347;SDS011;8791;50.876;4.342;2022-11-21T06:01:37;15.20;;;2.70;;
17347;SDS011;8791;50.876;4.342;2022-11-21T06:04:22;8.63;;;2.63;;
17347;SDS011;8791;50.876;4.342;2022-11-21T06:06:49;7.07;;;2.57;;
17347;SDS011;8791;50.876;4.342;2022-11-21T06:09:16;12.37;;;3.40;;
17347;SDS011;8791;50.876;4.342;2022-11-21T06:11:42;10.00;;;2.70;;
17347;SDS011;8791;50.876;4.342;2022-11-21T06:14:09;7.67;;;2.60;;
17347;SDS011;8791;50.876;4.342;2022-11-21T06:16:36;10.00;;;2.70;;
17347;SDS011;8791;50.876;4.342;2022-11-21T06:19:03;10.57;;;3.07;;
17347;SDS011;8791;50.876;4.342;2022-11-21T06:21:31;10.27;;;3.23;;
17347;SDS011;8791;50.876;4.342;2022-11-21T06:24:01;11.67;;;2.73;;
17347;SDS011;8791;50.876;4.342;2022-11-21T06:26:28;7.67;;;3.40;;
17347;SDS011;8791;50.876;4.342;2022-11-21T06:28:54;15.57;;;3.37;;
17347;SDS011;8791;50.876;4.342;2022-11-21T06:31:22;10.90;;;3.73;;
17347;SDS011;8791;50.876;4.342;2022-11-21T06:33:50;14.37;;;3.77;;
17347;SDS011;8791;50.876;4.342;2022-11-21T06:36:18;10.33;;;3.07;;
17347;SDS011;8791;50.876;4.342;2022-11-21T06:38:46;11.97;;;3.13;;
17347;SDS011;8791;50.876;4.342;2022-11-21T06:41:14;12.27;;;3.47;;
17347;SDS011;8791;50.876;4.342;2022-11-21T06:43:42;14.67;;;3.50;;
17347;SDS011;8791;50.876;4.342;2022-11-21T06:46:09;14.10;;;3.83;;
17347;SDS011;8791;50.876;4.342;2022-11-21T06:48:37;7.73;;;3.43;;
17347;SDS011;8791;50.876;4.342;2022-11-21T06:51:04;16.77;;;3.37;;
17347;SDS011;8791;50.876;4.342;2022-11-21T06:53:32;11.60;;;2.57;;
17347;SDS011;8791;50.876;4.342;2022-11-21T06:56:01;6.30;;;2.73;;
17347;SDS011;8791;50.876;4.342;2022-11-21T06:58:28;18.10;;;3.50;;
17347;SDS011;8791;50.876;4.342;2022-11-21T07:00:55;9.47;;;2.43;;
17347;SDS011;8791;50.876;4.342;2022-11-21T07:03:22;9.73;;;3.13;;
17347;SDS011;8791;50.876;4.342;2022-11-21T07:05:49;5.17;;;2.50;;
17347;SDS011;8791;50.876;4.342;2022-11-21T07:08:17;9.03;;;2.53;;
17347;SDS011;8791;50.876;4.342;2022-11-21T07:10:44;38.77;;;8.97;;
17347;SDS011;8791;50.876;4.342;2022-11-21T07:13:12;17.00;;;3.80;;
17347;SDS011;8791;50.876;4.342;2022-11-21T07:15:48;15.40;;;3.10;;
17347;SDS011;8791;50.876;4.342;2022-11-21T07:18:15;9.67;;;2.70;;
17347;SDS011;8791;50.876;4.342;2022-11-21T07:20:42;12.50;;;2.80;;
17347;SDS011;8791;50.876;4.342;2022-11-21T07:23:09;10.63;;;4.00;;
17347;SDS011;8791;50.876;4.342;2022-11-21T07:25:37;9.83;;;2.80;;
17347;SDS011;8791;50.876;4.342;2022-11-21T07:28:05;10.63;;;3.27;;
17347;SDS011;8791;50.876;4.342;2022-11-21T07:30:35;10.60;;;3.90;;
17347;SDS011;8791;50.876;4.342;2022-11-21T07:33:03;15.70;;;3.40;;
17347;SDS011;8791;50.876;4.342;2022-11-21T07:35:31;16.40;;;3.37;;
17347;SDS011;8791;50.876;4.342;2022-11-21T07:37:59;14.47;;;3.70;;
17347;SDS011;8791;50.876;4.342;2022-11-21T07:40:26;13.63;;;3.40;;
17347;SDS011;8791;50.876;4.342;2022-11-21T07:42:53;13.93;;;3.33;;
17347;SDS011;8791;50.876;4.342;2022-11-21T07:45:25;11.23;;;4.10;;
17347;SDS011;8791;50.876;4.342;2022-11-21T07:47:57;10.87;;;3.07;;
17347;SDS011;8791;50.876;4.342;2022-11-21T07:50:24;14.27;;;3.80;;
17347;SDS011;8791;50.876;4.342;2022-11-21T07:52:51;10.73;;;3.50;;
17347;SDS011;8791;50.876;4.342;2022-11-21T07:55:22;6.53;;;3.40;;
17347;SDS011;8791;50.876;4.342;2022-11-21T07:57:57;16.00;;;3.77;;
17347;SDS011;8791;50.876;4.342;2022-11-21T08:00:28;11.57;;;4.20;;
17347;SDS011;8791;50.876;4.342;2022-11-21T08:02:58;14.83;;;3.73;;
17347;SDS011;8791;50.876;4.342;2022-11-21T08:05:25;12.43;;;3.70;;
17347;SDS011;8791;50.876;4.342;2022-11-21T08:07:52;10.00;;;3.67;;
17347;SDS011;8791;50.876;4.342;2022-11-21T08:10:21;14.93;;;3.83;;
17347;SDS011;8791;50.876;4.342;2022-11-21T08:12:48;18.23;;;4.60;;
17347;SDS011;8791;50.876;4.342;2022-11-21T08:15:15;10.80;;;4.07;;
17347;SDS011;8791;50.876;4.342;2022-11-21T08:17:44;14.63;;;4.53;;
17347;SDS011;8791;50.876;4.342;2022-11-21T08:20:13;15.30;;;4.90;;
17347;SDS011;8791;50.876;4.342;2022-11-21T08:22:42;22.43;;;5.50;;
17347;SDS011;8791;50.876;4.342;2022-11-21T08:25:11;17.40;;;4.80;;
17347;SDS011;8791;50.876;4.342;2022-11-21T08:27:44;32.70;;;5.97;;
17347;SDS011;8791;50.876;4.342;2022-11-21T08:30:13;12.50;;;4.43;;
17347;SDS011;8791;50.876;4.342;2022-11-21T08:32:43;15.03;;;5.00;;
17347;SDS011;8791;50.876;4.342;2022-11-21T08:35:10;23.03;;;5.50;;
17347;SDS011;8791;50.876;4.342;2022-11-21T08:37:38;20.40;;;5.33;;
17347;SDS011;8791;50.876;4.342;2022-11-21T08:40:06;17.20;;;5.03;;
17347;SDS011;8791;50.876;4.342;2022-11-21T08:42:33;13.87;;;4.80;;
17347;SDS011;8791;50.876;4.342;2022-11-21T08:45:02;18.33;;;4.90;;
17347;SDS011;8791;50.876;4.342;2022-11-21T08:47:31;18.37;;;5.47;;
17347;SDS011;8791;50.876;4.342;2022-11-21T08:50:09;16.77;;;4.53;;
17347;SDS011;8791;50.876;4.342;2022-11-21T08:52:36;17.93;;;4.93;;
17347;SDS011;8791;50.876;4.342;2022-11-21T08:55:05;9.90;;;4.80;;
17347;SDS011;8791;50.876;4.342;2022-11-21T08:57:36;12.30;;;4.43;;
17347;SDS011;8791;50.876;4.342;2022-11-21T09:00:04;19.93;;;5.63;;
17347;SDS011;8791;50.876;4.342;2022-11-21T09:02:32;17.87;;;4.13;;
17347;SDS011;8791;50.876;4.342;2022-11-21T09:04:58;15.90;;;3.90;;
17347;SDS011;8791;50.876;4.342;2022-11-21T09:07:26;13.70;;;3.70;;
17347;SDS011;8791;50.876;4.342;2022-11-21T09:09:53;16.63;;;3.73;;
17347;SDS011;8791;50.876;4.342;2022-11-21T09:12:21;15.67;;;4.30;;
17347;SDS011;8791;50.876;4.342;2022-11-21T09:14:48;12.77;;;4.00;;
17347;SDS011;8791;50.876;4.342;2022-11-21T09:17:32;12.10;;;3.97;;
17347;SDS011;8791;50.876;4.342;2022-11-21T09:20:16;8.93;;;3.40;;
17347;SDS011;8791;50.876;4.342;2022-11-21T09:22:43;12.77;;;3.80;;
17347;SDS011;8791;50.876;4.342;2022-11-21T09:25:10;12.60;;;3.97;;
17347;SDS011;8791;50.876;4.342;2022-11-21T09:27:38;15.30;;;4.80;;
17347;SDS011;8791;50.876;4.342;2022-11-21T09:30:06;20.80;;;3.97;;
17347;SDS011;8791;50.876;4.342;2022-11-21T09:32:33;12.67;;;3.33;;
17347;SDS011;8791;50.876;4.342;2022-11-21T09:35:01;10.10;;;3.53;;
17347;SDS011;8791;50.876;4.342;2022-11-21T09:37:27;9.67;;;4.33;;
17347;SDS011;8791;50.876;4.342;2022-11-21T09:39:54;15.63;;;4.33;;
17347;SDS011;8791;50.876;4.342;2022-11-21T09:42:27;10.70;;;3.00;;
17347;SDS011;8791;50.876;4.342;2022-11-21T09:45:05;8.97;;;3.00;;
17347;SDS011;8791;50.876;4.342;2022-11-21T09:47:36;14.57;;;3.37;;
17347;SDS011;8791;50.876;4.342;2022-11-21T09:50:15;10.40;;;3.30;;
17347;SDS011;8791;50.876;4.342;2022-11-21T09:52:49;14.00;;;2.97;;
17347;SDS011;8791;50.876;4.342;2022-11-21T09:55:23;8.17;;;2.97;;
17347;SDS011;8791;50.876;4.342;2022-11-21T09:57:54;14.27;;;3.40;;
17347;SDS011;8791;50.876;4.342;2022-11-21T10:00:23;15.63;;;4.80;;
17347;SDS011;8791;50.876;4.342;2022-11-21T10:02:51;9.07;;;4.50;;
17347;SDS011;8791;50.876;4.342;2022-11-21T10:05:19;18.50;;;4.63;;
17347;SDS011;8791;50.876;4.342;2022-11-21T10:07:54;11.47;;;3.77;;
17347;SDS011;8791;50.876;4.342;2022-11-21T10:10:28;15.10;;;3.47;;
17347;SDS011;8791;50.876;4.342;2022-11-21T10:13:12;10.20;;;5.07;;
17347;SDS011;8791;50.876;4.342;2022-11-21T10:15:55;13.87;;;4.63;;
17347;SDS011;8791;50.876;4.342;2022-11-21T10:21:45;33.10;;;14.80;;
17347;SDS011;8791;50.876;4.342;2022-11-21T10:24:29;10.93;;;6.47;;
17347;SDS011;8791;50.876;4.342;2022-11-21T10:27:05;14.37;;;5.70;;
17347;SDS011;8791;50.876;4.342;2022-11-21T10:29:40;16.27;;;7.30;;
17347;SDS011;8791;50.876;4.342;2022-11-21T10:32:14;15.67;;;6.50;;
17347;SDS011;8791;50.876;4.342;2022-11-21T10:34:46;15.53;;;6.93;;
17347;SDS011;8791;50.876;4.342;2022-11-21T10:37:19;15.23;;;7.07;;
17347;SDS011;8791;50.876;4.342;2022-11-21T10:39:56;21.40;;;7.73;;
17347;SDS011;8791;50.876;4.342;2022-11-21T10:42:36;23.80;;;10.27;;
17347;SDS011;8791;50.876;4.342;2022-11-21T10:45:10;17.37;;;7.73;;
17347;SDS011;8791;50.876;4.342;2022-11-21T10:47:42;22.03;;;7.43;;
17347;SDS011;8791;50.876;4.342;2022-11-21T10:50:14;14.87;;;7.03;;
17347;SDS011;8791;50.876;4.342;2022-11-21T10:53:00;16.87;;;8.20;;
17347;SDS011;8791;50.876;4.342;2022-11-21T10:55:59;20.47;;;9.93;;
17347;SDS011;8791;50.876;4.342;2022-11-21T10:58:35;20.53;;;8.13;;
17347;SDS011;8791;50.876;4.342;2022-11-21T11:01:17;14.83;;;7.40;;
17347;SDS011;8791;50.876;4.342;2022-11-21T11:03:47;21.63;;;7.23;;
17347;SDS011;8791;50.876;4.342;2022-11-21T11:06:30;16.77;;;6.50;;
17347;SDS011;8791;50.876;4.342;2022-11-21T11:08:57;23.97;;;7.20;;
17347;SDS011;8791;50.876;4.342;2022-11-21T11:11:24;23.20;;;6.87;;
17347;SDS011;8791;50.876;4.342;2022-11-21T11:13:53;25.77;;;9.27;;
17347;SDS011;8791;50.876;4.342;2022-11-21T11:16:23;20.37;;;7.40;;
17347;SDS011;8791;50.876;4.342;2022-11-21T11:18:54;24.87;;;6.47;;
17347;SDS011;8791;50.876;4.342;2022-11-21T11:21:25;17.20;;;6.20;;
17347;SDS011;8791;50.876;4.342;2022-11-21T11:23:53;11.83;;;5.87;;
17347;SDS011;8791;50.876;4.342;2022-11-21T11:26:32;12.10;;;6.10;;
17347;SDS011;8791;50.876;4.342;2022-11-21T11:29:06;16.17;;;6.40;;
17347;SDS011;8791;50.876;4.342;2022-11-21T11:31:41;16.30;;;6.10;;
17347;SDS011;8791;50.876;4.342;2022-11-21T11:34:12;14.77;;;6.57;;
17347;SDS011;8791;50.876;4.342;2022-11-21T11:39:33;17.17;;;6.70;;
17347;SDS011;8791;50.876;4.342;2022-11-21T11:45:27;19.97;;;6.47;;
17347;SDS011;8791;50.876;4.342;2022-11-21T11:48:17;13.67;;;6.20;;
17347;SDS011;8791;50.876;4.342;2022-11-21T11:50:47;24.97;;;6.60;;
17347;SDS011;8791;50.876;4.342;2022-11-21T11:53:17;15.33;;;6.10;;
17347;SDS011;8791;50.876;4.342;2022-11-21T11:55:47;18.73;;;6.53;;
17347;SDS011;8791;50.876;4.342;2022-11-21T11:58:20;24.57;;;7.47;;
17347;SDS011;8791;50.876;4.342;2022-11-21T12:00:53;11.60;;;5.60;;
17347;SDS011;8791;50.876;4.342;2022-11-21T12:03:25;12.30;;;5.97;;
17347;SDS011;8791;50.876;4.342;2022-11-21T12:06:04;20.43;;;6.50;;
17347;SDS011;8791;50.876;4.342;2022-11-21T12:08:37;19.87;;;6.00;;
17347;SDS011;8791;50.876;4.342;2022-11-21T12:11:12;20.53;;;6.07;;
17347;SDS011;8791;50.876;4.342;2022-11-21T12:14:07;16.07;;;5.50;;
17347;SDS011;8791;50.876;4.342;2022-11-21T12:17:00;10.03;;;5.57;;
17347;SDS011;8791;50.876;4.342;2022-11-21T12:19:31;18.63;;;5.77;;
17347;SDS011;8791;50.876;4.342;2022-11-21T12:22:01;25.87;;;5.80;;
17347;SDS011;8791;50.876;4.342;2022-11-21T12:24:30;15.37;;;5.67;;
17347;SDS011;8791;50.876;4.342;2022-11-21T12:26:59;29.17;;;8.77;;
17347;SDS011;8791;50.876;4.342;2022-11-21T12:29:38;47.77;;;15.80;;
17347;SDS011;8791;50.876;4.342;2022-11-21T12:32:19;48.93;;;16.47;;
17347;SDS011;8791;50.876;4.342;2022-11-21T12:35:00;59.43;;;17.47;;
17347;SDS011;8791;50.876;4.342;2022-11-21T12:37:41;19.40;;;6.73;;
17347;SDS011;8791;50.876;4.342;2022-11-21T12:40:22;17.80;;;5.83;;
17347;SDS011;8791;50.876;4.342;2022-11-21T12:43:02;17.03;;;6.10;;
17347;SDS011;8791;50.876;4.342;2022-11-21T12:45:43;18.83;;;6.60;;
17347;SDS011;8791;50.876;4.342;2022-11-21T12:48:16;19.70;;;5.13;;
17347;SDS011;8791;50.876;4.342;2022-11-21T12:57:19;19.73;;;4.97;;
17347;SDS011;8791;50.876;4.342;2022-11-21T12:59:57;10.97;;;4.80;;
17347;SDS011;8791;50.876;4.342;2022-11-21T13:02:34;23.07;;;5.87;;
17347;SDS011;8791;50.876;4.342;2022-11-21T13:05:12;13.77;;;5.30;;
17347;SDS011;8791;50.876;4.342;2022-11-21T13:07:44;10.63;;;4.60;;
17347;SDS011;8791;50.876;4.342;2022-11-21T13:10:13;20.87;;;5.90;;
17347;SDS011;8791;50.876;4.342;2022-11-21T13:12:43;24.10;;;8.00;;
17347;SDS011;8791;50.876;4.342;2022-11-21T13:15:15;15.30;;;7.30;;
17347;SDS011;8791;50.876;4.342;2022-11-21T13:17:48;10.67;;;5.23;;
17347;SDS011;8791;50.876;4.342;2022-11-21T13:20:26;14.10;;;5.00;;
17347;SDS011;8791;50.876;4.342;2022-11-21T13:22:56;15.43;;;4.30;;
17347;SDS011;8791;50.876;4.342;2022-11-21T13:25:37;15.50;;;4.87;;
17347;SDS011;8791;50.876;4.342;2022-11-21T13:28:28;10.67;;;4.17;;
17347;SDS011;8791;50.876;4.342;2022-11-21T13:31:26;13.97;;;4.50;;
17347;SDS011;8791;50.876;4.342;2022-11-21T13:33:57;9.50;;;4.00;;
17347;SDS011;8791;50.876;4.342;2022-11-21T13:36:35;10.60;;;3.40;;
17347;SDS011;8791;50.876;4.342;2022-11-21T13:41:58;8.87;;;3.60;;
17347;SDS011;8791;50.876;4.342;2022-11-21T13:44:44;10.87;;;3.20;;
17347;SDS011;8791;50.876;4.342;2022-11-21T13:50:14;31.90;;;8.47;;
17347;SDS011;8791;50.876;4.342;2022-11-21T13:52:50;14.87;;;3.83;;
17347;SDS011;8791;50.876;4.342;2022-11-21T13:55:32;31.33;;;8.53;;
17347;SDS011;8791;50.876;4.342;2022-11-21T13:58:09;38.63;;;10.83;;
17347;SDS011;8791;50.876;4.342;2022-11-21T14:00:53;6.80;;;3.13;;
17347;SDS011;8791;50.876;4.342;2022-11-21T14:03:49;9.53;;;3.13;;
17347;SDS011;8791;50.876;4.342;2022-11-21T14:06:30;7.00;;;2.23;;
17347;SDS011;8791;50.876;4.342;2022-11-21T14:09:13;9.50;;;2.83;;
17347;SDS011;8791;50.876;4.342;2022-11-21T14:11:45;16.53;;;2.80;;
17347;SDS011;8791;50.876;4.342;2022-11-21T14:14:22;9.23;;;2.83;;
17347;SDS011;8791;50.876;4.342;2022-11-21T14:17:03;7.70;;;2.70;;
17347;SDS011;8791;50.876;4.342;2022-11-21T14:19:44;9.17;;;2.30;;
17347;SDS011;8791;50.876;4.342;2022-11-21T14:22:15;10.70;;;2.67;;
17347;SDS011;8791;50.876;4.342;2022-11-21T14:24:50;10.63;;;2.57;;
17347;SDS011;8791;50.876;4.342;2022-11-21T14:27:21;13.60;;;2.43;;
17347;SDS011;8791;50.876;4.342;2022-11-21T14:29:52;8.13;;;2.90;;
17347;SDS011;8791;50.876;4.342;2022-11-21T14:32:25;10.10;;;2.37;;
17347;SDS011;8791;50.876;4.342;2022-11-21T14:35:05;9.77;;;2.50;;
17347;SDS011;8791;50.876;4.342;2022-11-21T14:37:33;7.67;;;2.43;;
17347;SDS011;8791;50.876;4.342;2022-11-21T14:40:02;10.53;;;2.60;;
17347;SDS011;8791;50.876;4.342;2022-11-21T14:42:33;6.93;;;2.50;;
17347;SDS011;8791;50.876;4.342;2022-11-21T14:45:07;8.00;;;2.73;;
17347;SDS011;8791;50.876;4.342;2022-11-21T14:47:46;13.23;;;2.20;;
17347;SDS011;8791;50.876;4.342;2022-11-21T14:50:24;6.07;;;2.40;;
17347;SDS011;8791;50.876;4.342;2022-11-21T14:52:52;6.87;;;2.07;;
17347;SDS011;8791;50.876;4.342;2022-11-21T14:55:24;13.27;;;2.30;;
17347;SDS011;8791;50.876;4.342;2022-11-21T14:57:53;9.53;;;2.40;;
17347;SDS011;8791;50.876;4.342;2022-11-21T15:00:22;6.90;;;2.33;;
17347;SDS011;8791;50.876;4.342;2022-11-21T15:02:52;15.40;;;2.80;;
17347;SDS011;8791;50.876;4.342;2022-11-21T15:05:21;6.43;;;1.90;;
17347;SDS011;8791;50.876;4.342;2022-11-21T15:07:53;8.67;;;2.00;;
17347;SDS011;8791;50.876;4.342;2022-11-21T15:10:22;15.00;;;2.57;;
17347;SDS011;8791;50.876;4.342;2022-11-21T15:12:55;20.43;;;2.70;;
17347;SDS011;8791;50.876;4.342;2022-11-21T15:15:26;5.77;;;2.30;;
17347;SDS011;8791;50.876;4.342;2022-11-21T15:18:00;7.47;;;2.13;;
17347;SDS011;8791;50.876;4.342;2022-11-21T15:20:28;14.87;;;2.23;;
17347;SDS011;8791;50.876;4.342;2022-11-21T15:22:56;8.73;;;2.50;;
17347;SDS011;8791;50.876;4.342;2022-11-21T15:25:24;7.93;;;2.43;;
17347;SDS011;8791;50.876;4.342;2022-11-21T15:28:05;5.87;;;2.00;;
17347;SDS011;8791;50.876;4.342;2022-11-21T15:30:34;12.60;;;2.77;;
17347;SDS011;8791;50.876;4.342;2022-11-21T15:33:06;16.90;;;3.77;;
17347;SDS011;8791;50.876;4.342;2022-11-21T15:35:39;13.00;;;2.57;;
17347;SDS011;8791;50.876;4.342;2022-11-21T15:38:18;9.77;;;5.47;;